sensor_id;sensor_type;location;lat;lon;timestamp;P1;durP1;ratioP1;P2;durP2;ratioP2
75456;SDS011;64036;48.266;14.192;2023-12-07T00:01:27;11.10;;;6.90;;
75456;SDS011;64036;48.266;14.192;2023-12-07T00:04:03;12.60;;;8.10;;
75456;SDS011;64036;48.266;14.192;2023-12-07T00:06:31;12.40;;;7.60;;
75456;SDS011;64036;48.266;14.192;2023-12-07T00:08:57;13.20;;;7.90;;
75456;SDS011;64036;48.266;14.192;2023-12-07T00:11:31;13.40;;;8.40;;
75456;SDS011;64036;48.266;14.192;2023-12-07T00:14:01;13.80;;;7.30;;
75456;SDS011;64036;48.266;14.192;2023-12-07T00:16:27;14.00;;;7.90;;
75456;SDS011;64036;48.266;14.192;2023-12-07T00:18:55;11.60;;;7.40;;
75456;SDS011;64036;48.266;14.192;2023-12-07T00:21:23;13.20;;;8.00;;
75456;SDS011;64036;48.266;14.192;2023-12-07T00:23:49;13.00;;;8.40;;
75456;SDS011;64036;48.266;14.192;2023-12-07T00:26:15;14.30;;;8.50;;
75456;SDS011;64036;48.266;14.192;2023-12-07T00:31:12;11.80;;;7.10;;
75456;SDS011;64036;48.266;14.192;2023-12-07T00:33:38;10.50;;;6.40;;
75456;SDS011;64036;48.266;14.192;2023-12-07T00:36:04;11.70;;;6.70;;
75456;SDS011;64036;48.266;14.192;2023-12-07T00:38:29;10.30;;;5.60;;
75456;SDS011;64036;48.266;14.192;2023-12-07T00:40:57;10.60;;;6.70;;
75456;SDS011;64036;48.266;14.192;2023-12-07T00:43:23;12.20;;;7.50;;
75456;SDS011;64036;48.266;14.192;2023-12-07T00:45:49;12.40;;;7.60;;
75456;SDS011;64036;48.266;14.192;2023-12-07T00:48:14;14.40;;;7.70;;
75456;SDS011;64036;48.266;14.192;2023-12-07T00:50:40;14.00;;;8.10;;
75456;SDS011;64036;48.266;14.192;2023-12-07T00:53:06;13.10;;;7.70;;
75456;SDS011;64036;48.266;14.192;2023-12-07T00:55:31;13.50;;;7.50;;
75456;SDS011;64036;48.266;14.192;2023-12-07T00:57:57;13.40;;;8.10;;
75456;SDS011;64036;48.266;14.192;2023-12-07T01:00:25;14.30;;;8.00;;
75456;SDS011;64036;48.266;14.192;2023-12-07T01:02:53;14.10;;;8.40;;
75456;SDS011;64036;48.266;14.192;2023-12-07T01:05:19;13.20;;;8.00;;
75456;SDS011;64036;48.266;14.192;2023-12-07T01:07:45;13.90;;;8.10;;
75456;SDS011;64036;48.266;14.192;2023-12-07T01:10:11;12.50;;;7.60;;
75456;SDS011;64036;48.266;14.192;2023-12-07T01:12:36;14.10;;;8.40;;
75456;SDS011;64036;48.266;14.192;2023-12-07T01:15:03;12.00;;;7.40;;
75456;SDS011;64036;48.266;14.192;2023-12-07T01:17:35;12.90;;;8.00;;
75456;SDS011;64036;48.266;14.192;2023-12-07T01:20:01;14.30;;;8.30;;
75456;SDS011;64036;48.266;14.192;2023-12-07T01:22:32;14.30;;;9.20;;
75456;SDS011;64036;48.266;14.192;2023-12-07T01:25:00;13.60;;;8.40;;
75456;SDS011;64036;48.266;14.192;2023-12-07T01:27:26;14.40;;;8.40;;
75456;SDS011;64036;48.266;14.192;2023-12-07T01:29:57;14.60;;;8.90;;
75456;SDS011;64036;48.266;14.192;2023-12-07T01:32:22;13.40;;;8.90;;
75456;SDS011;64036;48.266;14.192;2023-12-07T01:34:48;13.50;;;8.40;;
75456;SDS011;64036;48.266;14.192;2023-12-07T01:37:14;16.00;;;9.50;;
75456;SDS011;64036;48.266;14.192;2023-12-07T01:39:52;13.80;;;7.80;;
75456;SDS011;64036;48.266;14.192;2023-12-07T01:42:18;15.00;;;8.50;;
75456;SDS011;64036;48.266;14.192;2023-12-07T01:44:43;17.70;;;8.90;;
75456;SDS011;64036;48.266;14.192;2023-12-07T01:47:09;14.70;;;8.60;;
75456;SDS011;64036;48.266;14.192;2023-12-07T01:49:35;14.70;;;8.20;;
75456;SDS011;64036;48.266;14.192;2023-12-07T01:52:02;16.10;;;9.10;;
75456;SDS011;64036;48.266;14.192;2023-12-07T01:54:32;15.90;;;9.20;;
75456;SDS011;64036;48.266;14.192;2023-12-07T01:56:58;12.90;;;8.20;;
75456;SDS011;64036;48.266;14.192;2023-12-07T01:59:24;15.90;;;9.20;;
75456;SDS011;64036;48.266;14.192;2023-12-07T02:01:53;16.10;;;8.90;;
75456;SDS011;64036;48.266;14.192;2023-12-07T02:04:19;14.70;;;9.30;;
75456;SDS011;64036;48.266;14.192;2023-12-07T02:06:45;16.40;;;9.50;;
75456;SDS011;64036;48.266;14.192;2023-12-07T02:09:11;15.50;;;9.20;;
75456;SDS011;64036;48.266;14.192;2023-12-07T02:11:42;14.80;;;9.20;;
75456;SDS011;64036;48.266;14.192;2023-12-07T02:14:08;16.50;;;9.00;;
75456;SDS011;64036;48.266;14.192;2023-12-07T02:17:03;15.70;;;9.10;;
75456;SDS011;64036;48.266;14.192;2023-12-07T02:19:55;13.10;;;7.80;;
75456;SDS011;64036;48.266;14.192;2023-12-07T02:22:27;17.80;;;10.20;;
75456;SDS011;64036;48.266;14.192;2023-12-07T02:25:05;17.00;;;9.20;;
75456;SDS011;64036;48.266;14.192;2023-12-07T02:27:47;15.70;;;8.90;;
75456;SDS011;64036;48.266;14.192;2023-12-07T02:30:14;13.90;;;8.70;;
75456;SDS011;64036;48.266;14.192;2023-12-07T02:32:50;15.00;;;9.00;;
75456;SDS011;64036;48.266;14.192;2023-12-07T02:35:18;13.60;;;9.00;;
75456;SDS011;64036;48.266;14.192;2023-12-07T02:37:52;13.50;;;8.10;;
75456;SDS011;64036;48.266;14.192;2023-12-07T02:40:22;16.10;;;9.40;;
75456;SDS011;64036;48.266;14.192;2023-12-07T02:45:19;14.60;;;8.20;;
75456;SDS011;64036;48.266;14.192;2023-12-07T02:47:48;14.20;;;8.40;;
75456;SDS011;64036;48.266;14.192;2023-12-07T02:50:16;14.30;;;8.00;;
75456;SDS011;64036;48.266;14.192;2023-12-07T02:52:42;15.00;;;9.30;;
75456;SDS011;64036;48.266;14.192;2023-12-07T02:55:11;15.40;;;8.40;;
75456;SDS011;64036;48.266;14.192;2023-12-07T02:57:37;14.20;;;8.50;;
75456;SDS011;64036;48.266;14.192;2023-12-07T03:00:08;14.60;;;8.60;;
75456;SDS011;64036;48.266;14.192;2023-12-07T03:02:40;14.90;;;8.60;;
75456;SDS011;64036;48.266;14.192;2023-12-07T03:05:09;14.50;;;8.40;;
75456;SDS011;64036;48.266;14.192;2023-12-07T03:07:43;15.30;;;9.20;;
75456;SDS011;64036;48.266;14.192;2023-12-07T03:10:11;15.40;;;8.70;;
75456;SDS011;64036;48.266;14.192;2023-12-07T03:12:37;14.90;;;8.40;;
75456;SDS011;64036;48.266;14.192;2023-12-07T03:15:13;15.90;;;9.30;;
75456;SDS011;64036;48.266;14.192;2023-12-07T03:17:49;15.70;;;8.60;;
75456;SDS011;64036;48.266;14.192;2023-12-07T03:20:15;16.20;;;9.10;;
75456;SDS011;64036;48.266;14.192;2023-12-07T03:22:42;16.70;;;9.80;;
75456;SDS011;64036;48.266;14.192;2023-12-07T03:25:08;16.30;;;9.70;;
75456;SDS011;64036;48.266;14.192;2023-12-07T03:27:34;14.80;;;8.90;;
75456;SDS011;64036;48.266;14.192;2023-12-07T03:29:59;17.30;;;9.50;;
75456;SDS011;64036;48.266;14.192;2023-12-07T03:32:25;14.30;;;8.50;;
75456;SDS011;64036;48.266;14.192;2023-12-07T03:34:51;14.50;;;9.10;;
75456;SDS011;64036;48.266;14.192;2023-12-07T03:37:17;14.50;;;9.50;;
75456;SDS011;64036;48.266;14.192;2023-12-07T03:39:42;15.90;;;9.10;;
75456;SDS011;64036;48.266;14.192;2023-12-07T03:42:08;15.60;;;9.20;;
75456;SDS011;64036;48.266;14.192;2023-12-07T03:44:34;15.50;;;8.50;;
75456;SDS011;64036;48.266;14.192;2023-12-07T03:47:00;17.20;;;9.30;;
75456;SDS011;64036;48.266;14.192;2023-12-07T03:49:28;15.60;;;9.40;;
75456;SDS011;64036;48.266;14.192;2023-12-07T03:51:54;15.40;;;9.20;;
75456;SDS011;64036;48.266;14.192;2023-12-07T03:54:23;17.50;;;10.10;;
75456;SDS011;64036;48.266;14.192;2023-12-07T03:56:59;17.10;;;9.50;;
75456;SDS011;64036;48.266;14.192;2023-12-07T03:59:25;17.20;;;10.00;;
75456;SDS011;64036;48.266;14.192;2023-12-07T04:01:53;15.20;;;8.70;;
75456;SDS011;64036;48.266;14.192;2023-12-07T04:04:22;16.70;;;8.40;;
75456;SDS011;64036;48.266;14.192;2023-12-07T04:06:53;17.10;;;10.10;;
75456;SDS011;64036;48.266;14.192;2023-12-07T04:09:24;17.90;;;9.60;;
75456;SDS011;64036;48.266;14.192;2023-12-07T04:11:58;14.30;;;9.00;;
75456;SDS011;64036;48.266;14.192;2023-12-07T04:14:29;14.00;;;7.60;;
75456;SDS011;64036;48.266;14.192;2023-12-07T04:16:58;16.90;;;9.40;;
75456;SDS011;64036;48.266;14.192;2023-12-07T04:19:24;15.20;;;8.80;;
75456;SDS011;64036;48.266;14.192;2023-12-07T04:21:49;13.20;;;8.10;;
75456;SDS011;64036;48.266;14.192;2023-12-07T04:24:15;16.60;;;8.90;;
75456;SDS011;64036;48.266;14.192;2023-12-07T04:26:41;17.20;;;9.50;;
75456;SDS011;64036;48.266;14.192;2023-12-07T04:29:06;16.10;;;9.20;;
75456;SDS011;64036;48.266;14.192;2023-12-07T04:31:32;15.30;;;8.60;;
75456;SDS011;64036;48.266;14.192;2023-12-07T04:33:58;15.80;;;8.80;;
75456;SDS011;64036;48.266;14.192;2023-12-07T04:36:24;15.60;;;9.20;;
75456;SDS011;64036;48.266;14.192;2023-12-07T04:38:50;15.60;;;9.20;;
75456;SDS011;64036;48.266;14.192;2023-12-07T04:41:16;16.30;;;9.20;;
75456;SDS011;64036;48.266;14.192;2023-12-07T04:43:42;15.90;;;9.10;;
75456;SDS011;64036;48.266;14.192;2023-12-07T04:46:13;14.90;;;9.40;;
75456;SDS011;64036;48.266;14.192;2023-12-07T04:48:51;18.20;;;9.70;;
75456;SDS011;64036;48.266;14.192;2023-12-07T04:51:23;15.50;;;9.00;;
75456;SDS011;64036;48.266;14.192;2023-12-07T04:53:49;15.30;;;9.00;;
75456;SDS011;64036;48.266;14.192;2023-12-07T04:56:15;15.50;;;9.20;;
75456;SDS011;64036;48.266;14.192;2023-12-07T04:58:50;15.60;;;9.20;;
75456;SDS011;64036;48.266;14.192;2023-12-07T05:01:16;15.30;;;8.50;;
75456;SDS011;64036;48.266;14.192;2023-12-07T05:03:41;16.40;;;8.50;;
75456;SDS011;64036;48.266;14.192;2023-12-07T05:06:07;15.60;;;8.30;;
75456;SDS011;64036;48.266;14.192;2023-12-07T05:08:33;15.00;;;7.90;;
75456;SDS011;64036;48.266;14.192;2023-12-07T05:10:59;13.60;;;8.80;;
75456;SDS011;64036;48.266;14.192;2023-12-07T05:13:24;14.40;;;8.60;;
75456;SDS011;64036;48.266;14.192;2023-12-07T05:15:53;13.00;;;7.70;;
75456;SDS011;64036;48.266;14.192;2023-12-07T05:18:22;16.30;;;9.10;;
75456;SDS011;64036;48.266;14.192;2023-12-07T05:20:48;15.40;;;8.60;;
75456;SDS011;64036;48.266;14.192;2023-12-07T05:23:13;15.10;;;8.70;;
75456;SDS011;64036;48.266;14.192;2023-12-07T05:25:39;14.50;;;8.20;;
75456;SDS011;64036;48.266;14.192;2023-12-07T05:28:05;14.40;;;7.80;;
75456;SDS011;64036;48.266;14.192;2023-12-07T05:30:31;15.90;;;8.60;;
75456;SDS011;64036;48.266;14.192;2023-12-07T05:32:56;14.90;;;8.10;;
75456;SDS011;64036;48.266;14.192;2023-12-07T05:35:22;16.10;;;9.50;;
75456;SDS011;64036;48.266;14.192;2023-12-07T05:37:48;13.30;;;8.10;;
75456;SDS011;64036;48.266;14.192;2023-12-07T05:40:17;13.70;;;7.50;;
75456;SDS011;64036;48.266;14.192;2023-12-07T05:42:56;16.30;;;8.80;;
75456;SDS011;64036;48.266;14.192;2023-12-07T05:45:22;13.70;;;8.10;;
75456;SDS011;64036;48.266;14.192;2023-12-07T05:47:52;14.60;;;8.40;;
75456;SDS011;64036;48.266;14.192;2023-12-07T05:50:17;12.50;;;7.90;;
75456;SDS011;64036;48.266;14.192;2023-12-07T05:52:43;15.10;;;7.70;;
75456;SDS011;64036;48.266;14.192;2023-12-07T05:55:12;14.90;;;8.80;;
75456;SDS011;64036;48.266;14.192;2023-12-07T05:57:40;14.10;;;8.40;;
75456;SDS011;64036;48.266;14.192;2023-12-07T06:00:06;15.00;;;8.80;;
75456;SDS011;64036;48.266;14.192;2023-12-07T06:02:36;19.10;;;8.90;;
75456;SDS011;64036;48.266;14.192;2023-12-07T06:05:18;14.90;;;9.30;;
75456;SDS011;64036;48.266;14.192;2023-12-07T06:07:44;14.90;;;8.80;;
75456;SDS011;64036;48.266;14.192;2023-12-07T06:10:26;15.40;;;8.80;;
75456;SDS011;64036;48.266;14.192;2023-12-07T06:13:03;14.50;;;8.70;;
75456;SDS011;64036;48.266;14.192;2023-12-07T06:15:30;15.50;;;8.40;;
75456;SDS011;64036;48.266;14.192;2023-12-07T06:18:08;15.80;;;8.80;;
75456;SDS011;64036;48.266;14.192;2023-12-07T06:20:41;14.60;;;8.10;;
75456;SDS011;64036;48.266;14.192;2023-12-07T06:23:07;15.90;;;9.20;;
75456;SDS011;64036;48.266;14.192;2023-12-07T06:25:40;15.80;;;8.80;;
75456;SDS011;64036;48.266;14.192;2023-12-07T06:28:07;14.20;;;8.20;;
75456;SDS011;64036;48.266;14.192;2023-12-07T06:30:33;16.10;;;8.40;;
75456;SDS011;64036;48.266;14.192;2023-12-07T06:32:59;13.90;;;7.90;;
75456;SDS011;64036;48.266;14.192;2023-12-07T06:35:25;15.30;;;7.80;;
75456;SDS011;64036;48.266;14.192;2023-12-07T06:37:51;14.70;;;8.20;;
75456;SDS011;64036;48.266;14.192;2023-12-07T06:40:17;13.60;;;8.30;;
75456;SDS011;64036;48.266;14.192;2023-12-07T06:42:43;15.70;;;8.60;;
75456;SDS011;64036;48.266;14.192;2023-12-07T06:45:16;14.50;;;8.60;;
75456;SDS011;64036;48.266;14.192;2023-12-07T06:47:42;14.80;;;8.30;;
75456;SDS011;64036;48.266;14.192;2023-12-07T06:50:11;14.80;;;8.50;;
75456;SDS011;64036;48.266;14.192;2023-12-07T06:53:06;12.30;;;7.30;;
75456;SDS011;64036;48.266;14.192;2023-12-07T06:55:38;14.40;;;7.50;;
75456;SDS011;64036;48.266;14.192;2023-12-07T06:58:08;13.80;;;7.30;;
75456;SDS011;64036;48.266;14.192;2023-12-07T07:00:37;13.70;;;7.70;;
75456;SDS011;64036;48.266;14.192;2023-12-07T07:03:03;14.20;;;7.60;;
75456;SDS011;64036;48.266;14.192;2023-12-07T07:05:34;10.50;;;6.10;;
75456;SDS011;64036;48.266;14.192;2023-12-07T07:08:05;16.40;;;7.40;;
75456;SDS011;64036;48.266;14.192;2023-12-07T07:10:36;13.40;;;7.30;;
75456;SDS011;64036;48.266;14.192;2023-12-07T07:13:02;16.00;;;8.40;;
75456;SDS011;64036;48.266;14.192;2023-12-07T07:15:32;12.80;;;7.80;;
75456;SDS011;64036;48.266;14.192;2023-12-07T07:18:02;15.10;;;8.90;;
75456;SDS011;64036;48.266;14.192;2023-12-07T07:20:33;13.80;;;8.50;;
75456;SDS011;64036;48.266;14.192;2023-12-07T07:22:59;14.70;;;8.20;;
75456;SDS011;64036;48.266;14.192;2023-12-07T07:25:25;15.90;;;8.90;;
75456;SDS011;64036;48.266;14.192;2023-12-07T07:27:50;15.60;;;9.60;;
75456;SDS011;64036;48.266;14.192;2023-12-07T07:30:17;15.10;;;8.80;;
75456;SDS011;64036;48.266;14.192;2023-12-07T07:32:43;15.70;;;9.70;;
75456;SDS011;64036;48.266;14.192;2023-12-07T07:35:11;14.30;;;8.30;;
75456;SDS011;64036;48.266;14.192;2023-12-07T07:37:38;14.80;;;9.40;;
75456;SDS011;64036;48.266;14.192;2023-12-07T07:40:05;16.10;;;9.80;;
75456;SDS011;64036;48.266;14.192;2023-12-07T07:42:35;15.50;;;9.00;;
75456;SDS011;64036;48.266;14.192;2023-12-07T07:45:13;15.30;;;9.10;;
75456;SDS011;64036;48.266;14.192;2023-12-07T07:47:39;15.50;;;9.00;;
75456;SDS011;64036;48.266;14.192;2023-12-07T07:50:08;14.00;;;7.90;;
75456;SDS011;64036;48.266;14.192;2023-12-07T07:52:40;12.70;;;7.90;;
75456;SDS011;64036;48.266;14.192;2023-12-07T07:55:06;14.40;;;8.80;;
75456;SDS011;64036;48.266;14.192;2023-12-07T07:57:42;15.80;;;9.00;;
75456;SDS011;64036;48.266;14.192;2023-12-07T08:00:19;15.80;;;7.80;;
75456;SDS011;64036;48.266;14.192;2023-12-07T08:02:46;13.90;;;7.50;;
75456;SDS011;64036;48.266;14.192;2023-12-07T08:05:16;13.90;;;8.90;;
75456;SDS011;64036;48.266;14.192;2023-12-07T08:07:44;16.00;;;9.00;;
75456;SDS011;64036;48.266;14.192;2023-12-07T08:10:10;13.80;;;8.00;;
75456;SDS011;64036;48.266;14.192;2023-12-07T08:12:39;16.20;;;9.20;;
75456;SDS011;64036;48.266;14.192;2023-12-07T08:15:06;19.70;;;11.30;;
75456;SDS011;64036;48.266;14.192;2023-12-07T08:17:39;21.70;;;12.00;;
75456;SDS011;64036;48.266;14.192;2023-12-07T08:20:09;21.90;;;11.00;;
75456;SDS011;64036;48.266;14.192;2023-12-07T08:22:36;20.40;;;11.40;;
75456;SDS011;64036;48.266;14.192;2023-12-07T08:25:03;20.10;;;11.20;;
75456;SDS011;64036;48.266;14.192;2023-12-07T08:27:34;19.80;;;11.30;;
75456;SDS011;64036;48.266;14.192;2023-12-07T08:30:00;16.20;;;10.20;;
75456;SDS011;64036;48.266;14.192;2023-12-07T08:32:26;16.90;;;8.80;;
75456;SDS011;64036;48.266;14.192;2023-12-07T08:34:52;15.10;;;9.50;;
75456;SDS011;64036;48.266;14.192;2023-12-07T08:37:19;18.00;;;10.00;;
75456;SDS011;64036;48.266;14.192;2023-12-07T08:39:45;17.90;;;9.80;;
75456;SDS011;64036;48.266;14.192;2023-12-07T08:42:17;16.60;;;9.30;;
75456;SDS011;64036;48.266;14.192;2023-12-07T08:44:43;19.70;;;10.40;;
75456;SDS011;64036;48.266;14.192;2023-12-07T08:47:09;19.50;;;10.70;;
75456;SDS011;64036;48.266;14.192;2023-12-07T08:49:35;15.10;;;9.10;;
75456;SDS011;64036;48.266;14.192;2023-12-07T08:52:01;17.90;;;10.20;;
75456;SDS011;64036;48.266;14.192;2023-12-07T08:54:27;16.20;;;9.70;;
75456;SDS011;64036;48.266;14.192;2023-12-07T08:56:53;13.80;;;8.20;;
75456;SDS011;64036;48.266;14.192;2023-12-07T08:59:20;11.80;;;6.70;;
75456;SDS011;64036;48.266;14.192;2023-12-07T09:01:45;13.40;;;8.50;;
75456;SDS011;64036;48.266;14.192;2023-12-07T09:04:11;13.30;;;8.30;;
75456;SDS011;64036;48.266;14.192;2023-12-07T09:06:37;14.10;;;8.70;;
75456;SDS011;64036;48.266;14.192;2023-12-07T09:09:03;14.30;;;8.10;;
75456;SDS011;64036;48.266;14.192;2023-12-07T09:11:30;15.20;;;9.80;;
75456;SDS011;64036;48.266;14.192;2023-12-07T09:13:56;16.40;;;9.90;;
75456;SDS011;64036;48.266;14.192;2023-12-07T09:16:22;17.00;;;10.40;;
75456;SDS011;64036;48.266;14.192;2023-12-07T09:18:48;16.10;;;9.50;;
75456;SDS011;64036;48.266;14.192;2023-12-07T09:21:14;15.90;;;9.80;;
75456;SDS011;64036;48.266;14.192;2023-12-07T09:23:40;16.00;;;9.60;;
75456;SDS011;64036;48.266;14.192;2023-12-07T09:26:06;16.50;;;10.20;;
75456;SDS011;64036;48.266;14.192;2023-12-07T09:28:33;17.30;;;10.30;;
75456;SDS011;64036;48.266;14.192;2023-12-07T09:30:59;13.60;;;8.20;;
75456;SDS011;64036;48.266;14.192;2023-12-07T09:33:25;15.10;;;9.20;;
75456;SDS011;64036;48.266;14.192;2023-12-07T09:35:51;18.30;;;10.00;;
75456;SDS011;64036;48.266;14.192;2023-12-07T09:38:17;13.90;;;8.60;;
75456;SDS011;64036;48.266;14.192;2023-12-07T09:40:45;18.30;;;9.60;;
75456;SDS011;64036;48.266;14.192;2023-12-07T09:43:12;15.30;;;9.70;;
75456;SDS011;64036;48.266;14.192;2023-12-07T09:45:40;15.70;;;9.00;;
75456;SDS011;64036;48.266;14.192;2023-12-07T09:48:07;18.00;;;10.10;;
75456;SDS011;64036;48.266;14.192;2023-12-07T09:50:36;12.20;;;7.90;;
75456;SDS011;64036;48.266;14.192;2023-12-07T09:53:07;14.30;;;8.30;;
75456;SDS011;64036;48.266;14.192;2023-12-07T09:55:33;15.00;;;9.30;;
75456;SDS011;64036;48.266;14.192;2023-12-07T09:57:59;17.90;;;10.10;;
75456;SDS011;64036;48.266;14.192;2023-12-07T10:00:25;15.80;;;9.70;;
75456;SDS011;64036;48.266;14.192;2023-12-07T10:02:51;15.10;;;10.00;;
75456;SDS011;64036;48.266;14.192;2023-12-07T10:05:20;15.50;;;9.50;;
75456;SDS011;64036;48.266;14.192;2023-12-07T10:07:48;14.80;;;8.60;;
75456;SDS011;64036;48.266;14.192;2023-12-07T10:10:17;16.80;;;11.40;;
75456;SDS011;64036;48.266;14.192;2023-12-07T10:12:53;17.10;;;10.80;;
75456;SDS011;64036;48.266;14.192;2023-12-07T10:15:24;16.80;;;9.70;;
75456;SDS011;64036;48.266;14.192;2023-12-07T10:17:51;15.80;;;10.00;;
75456;SDS011;64036;48.266;14.192;2023-12-07T10:20:21;17.60;;;9.80;;
75456;SDS011;64036;48.266;14.192;2023-12-07T10:23:00;11.80;;;7.30;;
75456;SDS011;64036;48.266;14.192;2023-12-07T10:25:29;13.10;;;7.90;;
75456;SDS011;64036;48.266;14.192;2023-12-07T10:27:55;16.30;;;9.40;;
75456;SDS011;64036;48.266;14.192;2023-12-07T10:30:21;15.90;;;9.80;;
75456;SDS011;64036;48.266;14.192;2023-12-07T10:32:50;13.20;;;7.90;;
75456;SDS011;64036;48.266;14.192;2023-12-07T10:35:18;16.00;;;9.50;;
75456;SDS011;64036;48.266;14.192;2023-12-07T10:37:45;14.40;;;8.40;;
75456;SDS011;64036;48.266;14.192;2023-12-07T10:40:12;15.40;;;9.70;;
75456;SDS011;64036;48.266;14.192;2023-12-07T10:42:40;12.80;;;7.90;;
75456;SDS011;64036;48.266;14.192;2023-12-07T10:45:09;13.40;;;7.90;;
75456;SDS011;64036;48.266;14.192;2023-12-07T10:47:39;19.20;;;11.40;;
75456;SDS011;64036;48.266;14.192;2023-12-07T10:50:06;16.80;;;10.30;;
75456;SDS011;64036;48.266;14.192;2023-12-07T10:52:45;15.70;;;9.60;;
75456;SDS011;64036;48.266;14.192;2023-12-07T10:55:20;17.70;;;10.60;;
75456;SDS011;64036;48.266;14.192;2023-12-07T10:57:52;17.50;;;10.90;;
75456;SDS011;64036;48.266;14.192;2023-12-07T11:00:22;19.00;;;11.70;;
75456;SDS011;64036;48.266;14.192;2023-12-07T11:02:53;15.50;;;9.80;;
75456;SDS011;64036;48.266;14.192;2023-12-07T11:05:19;17.80;;;10.80;;
75456;SDS011;64036;48.266;14.192;2023-12-07T11:07:54;17.30;;;10.90;;
75456;SDS011;64036;48.266;14.192;2023-12-07T11:13:13;16.40;;;9.70;;
75456;SDS011;64036;48.266;14.192;2023-12-07T11:16:03;15.40;;;9.90;;
75456;SDS011;64036;48.266;14.192;2023-12-07T11:18:29;17.20;;;10.70;;
75456;SDS011;64036;48.266;14.192;2023-12-07T11:20:56;14.10;;;8.80;;
75456;SDS011;64036;48.266;14.192;2023-12-07T11:23:22;18.20;;;10.20;;
75456;SDS011;64036;48.266;14.192;2023-12-07T11:25:49;15.50;;;10.00;;
75456;SDS011;64036;48.266;14.192;2023-12-07T11:28:17;16.70;;;10.00;;
75456;SDS011;64036;48.266;14.192;2023-12-07T11:30:46;16.30;;;10.60;;
75456;SDS011;64036;48.266;14.192;2023-12-07T11:33:14;16.00;;;10.00;;
75456;SDS011;64036;48.266;14.192;2023-12-07T11:36:05;17.90;;;11.50;;
75456;SDS011;64036;48.266;14.192;2023-12-07T11:38:32;13.40;;;8.60;;
75456;SDS011;64036;48.266;14.192;2023-12-07T11:40:59;20.10;;;12.10;;
75456;SDS011;64036;48.266;14.192;2023-12-07T11:46:01;14.00;;;9.70;;
75456;SDS011;64036;48.266;14.192;2023-12-07T11:48:27;14.80;;;10.00;;
75456;SDS011;64036;48.266;14.192;2023-12-07T11:50:54;13.60;;;9.20;;
75456;SDS011;64036;48.266;14.192;2023-12-07T11:53:29;14.10;;;9.90;;
75456;SDS011;64036;48.266;14.192;2023-12-07T11:55:59;16.10;;;10.60;;
75456;SDS011;64036;48.266;14.192;2023-12-07T11:58:27;15.70;;;10.40;;
75456;SDS011;64036;48.266;14.192;2023-12-07T12:00:57;18.40;;;11.60;;
75456;SDS011;64036;48.266;14.192;2023-12-07T12:03:27;17.50;;;10.80;;
75456;SDS011;64036;48.266;14.192;2023-12-07T12:05:54;17.40;;;11.30;;
75456;SDS011;64036;48.266;14.192;2023-12-07T12:08:20;17.40;;;11.00;;
75456;SDS011;64036;48.266;14.192;2023-12-07T12:10:47;19.70;;;11.00;;
75456;SDS011;64036;48.266;14.192;2023-12-07T12:13:15;17.80;;;11.40;;
75456;SDS011;64036;48.266;14.192;2023-12-07T12:15:42;15.60;;;10.60;;
75456;SDS011;64036;48.266;14.192;2023-12-07T12:18:08;15.60;;;10.70;;
75456;SDS011;64036;48.266;14.192;2023-12-07T12:20:35;14.50;;;9.70;;
75456;SDS011;64036;48.266;14.192;2023-12-07T12:23:01;15.80;;;10.30;;
75456;SDS011;64036;48.266;14.192;2023-12-07T12:25:31;14.30;;;8.80;;
75456;SDS011;64036;48.266;14.192;2023-12-07T12:27:58;14.90;;;9.50;;
75456;SDS011;64036;48.266;14.192;2023-12-07T12:30:28;15.10;;;9.70;;
75456;SDS011;64036;48.266;14.192;2023-12-07T12:32:56;12.40;;;8.20;;
75456;SDS011;64036;48.266;14.192;2023-12-07T12:35:22;16.30;;;10.70;;
75456;SDS011;64036;48.266;14.192;2023-12-07T12:37:49;15.60;;;10.70;;
75456;SDS011;64036;48.266;14.192;2023-12-07T12:40:16;15.00;;;10.30;;
75456;SDS011;64036;48.266;14.192;2023-12-07T12:42:48;16.70;;;10.80;;
75456;SDS011;64036;48.266;14.192;2023-12-07T12:45:18;19.50;;;12.10;;
75456;SDS011;64036;48.266;14.192;2023-12-07T12:47:47;17.30;;;11.40;;
75456;SDS011;64036;48.266;14.192;2023-12-07T12:50:37;18.90;;;11.50;;
75456;SDS011;64036;48.266;14.192;2023-12-07T12:53:05;16.40;;;10.90;;
75456;SDS011;64036;48.266;14.192;2023-12-07T12:55:36;16.40;;;11.50;;
75456;SDS011;64036;48.266;14.192;2023-12-07T12:58:05;16.60;;;10.80;;
75456;SDS011;64036;48.266;14.192;2023-12-07T13:00:33;15.70;;;10.70;;
75456;SDS011;64036;48.266;14.192;2023-12-07T13:03:04;15.50;;;9.80;;
75456;SDS011;64036;48.266;14.192;2023-12-07T13:05:30;16.70;;;10.70;;
75456;SDS011;64036;48.266;14.192;2023-12-07T13:08:00;16.70;;;10.90;;
75456;SDS011;64036;48.266;14.192;2023-12-07T13:10:27;16.60;;;11.50;;
75456;SDS011;64036;48.266;14.192;2023-12-07T13:12:53;16.90;;;11.30;;
75456;SDS011;64036;48.266;14.192;2023-12-07T13:15:18;17.20;;;10.20;;
75456;SDS011;64036;48.266;14.192;2023-12-07T13:17:44;17.20;;;10.60;;
75456;SDS011;64036;48.266;14.192;2023-12-07T13:20:11;13.50;;;9.50;;
75456;SDS011;64036;48.266;14.192;2023-12-07T13:22:40;14.50;;;9.20;;
75456;SDS011;64036;48.266;14.192;2023-12-07T13:25:11;16.70;;;10.50;;
75456;SDS011;64036;48.266;14.192;2023-12-07T13:27:42;14.40;;;10.00;;
75456;SDS011;64036;48.266;14.192;2023-12-07T13:30:08;17.00;;;11.10;;
75456;SDS011;64036;48.266;14.192;2023-12-07T13:32:37;17.40;;;10.70;;
75456;SDS011;64036;48.266;14.192;2023-12-07T13:35:05;18.10;;;11.10;;
75456;SDS011;64036;48.266;14.192;2023-12-07T13:37:31;15.30;;;9.80;;
75456;SDS011;64036;48.266;14.192;2023-12-07T13:40:03;16.70;;;10.90;;
75456;SDS011;64036;48.266;14.192;2023-12-07T13:42:30;21.20;;;13.00;;
75456;SDS011;64036;48.266;14.192;2023-12-07T13:44:57;19.90;;;12.50;;
75456;SDS011;64036;48.266;14.192;2023-12-07T13:47:27;21.50;;;11.90;;
75456;SDS011;64036;48.266;14.192;2023-12-07T13:49:58;22.60;;;13.40;;
75456;SDS011;64036;48.266;14.192;2023-12-07T13:52:29;19.70;;;12.10;;
75456;SDS011;64036;48.266;14.192;2023-12-07T13:54:57;18.40;;;11.40;;
75456;SDS011;64036;48.266;14.192;2023-12-07T13:57:23;18.00;;;11.60;;
75456;SDS011;64036;48.266;14.192;2023-12-07T13:59:55;17.50;;;11.70;;
75456;SDS011;64036;48.266;14.192;2023-12-07T14:02:21;19.00;;;11.20;;
75456;SDS011;64036;48.266;14.192;2023-12-07T14:04:48;21.20;;;11.70;;
75456;SDS011;64036;48.266;14.192;2023-12-07T14:07:21;19.20;;;11.60;;
75456;SDS011;64036;48.266;14.192;2023-12-07T14:09:51;18.00;;;11.50;;
75456;SDS011;64036;48.266;14.192;2023-12-07T14:12:20;17.10;;;11.50;;
75456;SDS011;64036;48.266;14.192;2023-12-07T14:20:34;18.80;;;11.10;;
75456;SDS011;64036;48.266;14.192;2023-12-07T14:23:00;19.00;;;12.00;;
75456;SDS011;64036;48.266;14.192;2023-12-07T14:25:32;19.70;;;11.40;;
75456;SDS011;64036;48.266;14.192;2023-12-07T14:28:13;20.40;;;12.20;;
75456;SDS011;64036;48.266;14.192;2023-12-07T14:30:51;17.80;;;11.80;;
75456;SDS011;64036;48.266;14.192;2023-12-07T14:33:21;19.20;;;11.00;;
75456;SDS011;64036;48.266;14.192;2023-12-07T14:35:50;19.30;;;11.30;;
75456;SDS011;64036;48.266;14.192;2023-12-07T14:38:16;21.70;;;10.80;;
75456;SDS011;64036;48.266;14.192;2023-12-07T14:40:44;20.10;;;11.40;;
75456;SDS011;64036;48.266;14.192;2023-12-07T14:43:10;18.80;;;10.70;;